WetterOnline ( http://www.wetteronline.de )

Wetter aktuell Enkenbach-Alsenborn

Aktuelles Wetter: Weinbiet/Pfalz (557m)

6-stündlich | Neueste Meldungen
Ortszeit Temperatur Wetter
Mi, 17.10. 2:00 16.3° C fast wolkenlos
Di, 16.10. 20:00 17.7° C fast wolkenlos
Di, 16.10. 14:00 20.3° C wolkenlos
Di, 16.10. 8:00 15.2° C wolkenlos
Di, 16.10. 2:00 16.5° C fast wolkenlos
Mo, 15.10. 20:00 18.0° C wolkenlos
Mo, 15.10. 14:00 21.1° C wolkenlos
Mo, 15.10. 8:00 17.1° C wolkenlos
Ortszeit Temperatur Wetter
Mi, 17.10. 3:00 15.7° C leicht bewölkt
Mi, 17.10. 2:30 15.9° C wolkenlos
Mi, 17.10. 2:20 15.9° C wolkenlos
Mi, 17.10. 2:10 16.0° C wolkenlos
Mi, 17.10. 2:00 16.3° C fast wolkenlos
Mi, 17.10. 1:40 16.6° C fast wolkenlos
Mi, 17.10. 1:30 16.8° C leicht bewölkt
Mi, 17.10. 1:00 16.4° C fast wolkenlos
Mi, 17.10. 0:30 16.5° C fast wolkenlos
Mi, 17.10. 0:00 16.9° C fast wolkenlos
Di, 16.10. 23:30 16.7° C wolkenlos
Ortszeit Relative Feuchte Sichtweite
Mi, 17.10. 2:00 60% 10 km
Di, 16.10. 20:00 56% 10 km
Di, 16.10. 14:00 43% 9 km
Di, 16.10. 8:00 57% 10 km
Di, 16.10. 2:00 54% 10 km
Mo, 15.10. 20:00 49% 10 km
Mo, 15.10. 14:00 40% 10 km
Mo, 15.10. 8:00 51% 10 km
Ortszeit Relative Feuchte Sichtweite
Mi, 17.10. 3:00 62% 10 km
Mi, 17.10. 2:30 61% 10 km
Mi, 17.10. 2:20 61% -
Mi, 17.10. 2:10 59% -
Mi, 17.10. 2:00 60% 10 km
Mi, 17.10. 1:40 56% -
Mi, 17.10. 1:30 57% 10 km
Mi, 17.10. 1:00 63% 10 km
Mi, 17.10. 0:30 64% 10 km
Mi, 17.10. 0:00 62% 10 km
Di, 16.10. 23:30 63% 10 km
Ortszeit Niederschlagsmenge Niederschlagsart
Mi, 17.10. 2:00 0.0 l/m2 in 6 Std. -
Di, 16.10. 20:00 0.0 l/m2 in 12 Std. -
Di, 16.10. 14:00 0.0 l/m2 in 6 Std. -
Di, 16.10. 8:00 0.0 l/m2 in 12 Std. -
Di, 16.10. 2:00 0.0 l/m2 in 6 Std. -
Mo, 15.10. 20:00 0.0 l/m2 in 12 Std. -
Mo, 15.10. 14:00 0.0 l/m2 in 6 Std. -
Mo, 15.10. 8:00 0.0 l/m2 in 12 Std. -
Ortszeit Niederschlagsmenge Niederschlagsart
Mi, 17.10. 3:00 0.0 l/m2 in 1 Std. -
Mi, 17.10. 2:30 0.0 l/m2 in 1 Std. -
Mi, 17.10. 2:20 keine Meldung -
Mi, 17.10. 2:10 keine Meldung -
Mi, 17.10. 2:00 0.0 l/m2 in 1 Std. -
Mi, 17.10. 1:40 keine Meldung -
Mi, 17.10. 1:30 0.0 l/m2 in 1 Std. -
Mi, 17.10. 1:00 0.0 l/m2 in 1 Std. -
Mi, 17.10. 0:30 0.0 l/m2 in 1 Std. -
Mi, 17.10. 0:00 0.0 l/m2 in 1 Std. -
Di, 16.10. 23:30 0.0 l/m2 in 1 Std. -
Ortszeit Stärke Spitze Richtung
km/h Bft. km/h Grad Sektor
Mi, 17.10. 2:00 15 3 31 50° NO
Di, 16.10. 20:00 22 4 35 40° NO
Di, 16.10. 14:00 13 3 30 70° O
Di, 16.10. 8:00 22 4 29 40° NO
Di, 16.10. 2:00 13 3 30 50° NO
Mo, 15.10. 20:00 22 4 32 40° NO
Mo, 15.10. 14:00 11 2 29 60° NO
Mo, 15.10. 8:00 11 2 22 350° N
Ortszeit Stärke Spitze Richtung
km/h Bft. km/h Grad Sektor
Mi, 17.10. 3:00 11 2 22 50° NO
Mi, 17.10. 2:30 13 3 20 50° NO
Mi, 17.10. 2:20 13 3 - 50° NO
Mi, 17.10. 2:10 15 3 - 50° NO
Mi, 17.10. 2:00 15 3 20 50° NO
Mi, 17.10. 1:40 17 3 - 50° NO
Mi, 17.10. 1:30 15 3 19 40° NO
Mi, 17.10. 1:00 11 2 22 50° NO
Mi, 17.10. 0:30 17 3 22 40° NO
Mi, 17.10. 0:00 14 3 22 50° NO
Di, 16.10. 23:30 14 3 22 50° NO
Ortszeit Untergrenze Bedeckung Gattung
total tief tief mittel hoch
Mi, 17.10. 2:00 3000 m 1/8 1/8 - - -
Di, 16.10. 20:00 3000 m 1/8 1/8 - - -
Di, 16.10. 14:00 - 0/8 0/8 - - -
Di, 16.10. 8:00 - 0/8 0/8 - - -
Di, 16.10. 2:00 3000 m 1/8 1/8 - - -
Mo, 15.10. 20:00 - 0/8 0/8 - - -
Mo, 15.10. 14:00 - 0/8 0/8 - - -
Mo, 15.10. 8:00 - 0/8 0/8 - - -
Ortszeit Bedeckungsgrad in Achtel und Wolkenuntergrenze
Mi, 17.10. 3:00 1(3000m)
Mi, 17.10. 2:30 keine Wolken
Mi, 17.10. 2:20 keine Wolken
Mi, 17.10. 2:10 keine Wolken
Mi, 17.10. 2:00 1(3000m)
Mi, 17.10. 1:40 1(3000m)
Mi, 17.10. 1:30 1(3000m) 9 9
Mi, 17.10. 1:00 1(3000m)
Mi, 17.10. 0:30 1(3000m)
Mi, 17.10. 0:00 1(3000m)
Di, 16.10. 23:30 keine Wolken
Ortszeit Luftdruck NN (hPa) Tendenz (hPa in 3 Std.)
Mi, 17.10. 2:00 1019 - 0,5
Di, 16.10. 20:00 1019 + 0,3
Di, 16.10. 14:00 1018 + 0,3
Di, 16.10. 8:00 1018 + 0,7
Di, 16.10. 2:00 1016 + 0,4
Mo, 15.10. 20:00 1015 + 0,9
Mo, 15.10. 14:00 1013 - 0,1
Mo, 15.10. 8:00 1013 + 0,7
Ortszeit Luftdruck NN (hPa) Tendenz (hPa in 3 Std.)
Mi, 17.10. 3:00 1019 - 0,5
Mi, 17.10. 2:30 1019 - 0,5
Mi, 17.10. 2:20 1019 keine Meldung
Mi, 17.10. 2:10 1019 keine Meldung
Mi, 17.10. 2:00 1019 - 0,5
Mi, 17.10. 1:40 1019 keine Meldung
Mi, 17.10. 1:30 1019 - 0,5
Mi, 17.10. 1:00 1019 - 0,3
Mi, 17.10. 0:30 1019 - 0,1
Mi, 17.10. 0:00 1019 + 0,1
Di, 16.10. 23:30 1020 + 0,2
Ortszeit Schneehöhe (cm)
Mi, 17.10. 2:00 0
Di, 16.10. 20:00 0
Di, 16.10. 14:00 0
Di, 16.10. 8:00 0
Di, 16.10. 2:00 0
Mo, 15.10. 20:00 0
Mo, 15.10. 14:00 0
Mo, 15.10. 8:00 0
Ortszeit Schneehöhe (cm)
Mi, 17.10. 3:00 0
Mi, 17.10. 2:30 0
Mi, 17.10. 2:20 0
Mi, 17.10. 2:10 0
Mi, 17.10. 2:00 0
Mi, 17.10. 1:40 0
Mi, 17.10. 1:30 0
Mi, 17.10. 1:00 0
Mi, 17.10. 0:30 0
Mi, 17.10. 0:00 0
Di, 16.10. 23:30 0
Link zu dieser Seite / Seite empfehlen

Das Wetter in ...